createdAt,value
2019-06-10T00:00:04.820Z,1.27
2019-06-10T00:02:37.613Z,1.00
2019-06-10T00:05:10.966Z,0.97
2019-06-10T00:07:43.418Z,1.33
2019-06-10T00:10:15.727Z,1.77
2019-06-10T00:12:47.963Z,1.00
2019-06-10T00:15:21.355Z,1.20
2019-06-10T00:18:17.270Z,1.23
2019-06-10T00:20:27.823Z,1.13
2019-06-10T00:23:02.554Z,1.30
2019-06-10T00:25:34.170Z,0.83
2019-06-10T00:28:07.474Z,1.30
2019-06-10T00:30:41.157Z,1.07
2019-06-10T00:33:13.923Z,2.03
2019-06-10T00:35:46.200Z,2.20
2019-06-10T00:38:18.452Z,1.30
2019-06-10T00:40:51.386Z,2.17
2019-06-10T00:43:23.943Z,1.30
2019-06-10T00:45:56.153Z,1.67
2019-06-10T00:48:29.354Z,1.13
2019-06-10T00:51:04.090Z,1.50
2019-06-10T00:53:36.412Z,1.17
2019-06-10T00:56:12.550Z,1.00
2019-06-10T00:58:43.106Z,1.60
2019-06-10T01:01:15.172Z,1.37
2019-06-10T01:03:47.468Z,1.53
2019-06-10T01:06:21.372Z,1.37
2019-06-10T01:08:54.715Z,1.27
2019-06-10T01:11:27.427Z,0.90
2019-06-10T01:14:01.454Z,1.30
2019-06-10T01:16:33.860Z,1.93
2019-06-10T01:19:06.079Z,1.17
2019-06-10T01:21:38.429Z,1.07
2019-06-10T01:24:14.429Z,1.10
2019-06-10T01:26:45.652Z,1.63
2019-06-10T01:29:18.179Z,1.70
2019-06-10T01:31:51.238Z,0.97
2019-06-10T01:34:23.715Z,1.17
2019-06-10T01:36:55.939Z,1.43
2019-06-10T01:39:30.701Z,1.60
2019-06-10T01:42:02.097Z,1.60
2019-06-10T01:44:34.298Z,1.57
2019-06-10T01:47:06.793Z,1.33
2019-06-10T01:49:41.106Z,1.53
2019-06-10T01:52:15.103Z,1.50
2019-06-10T01:54:46.856Z,1.63
2019-06-10T01:57:21.240Z,1.50
2019-06-10T01:59:53.001Z,1.60
2019-06-10T02:02:25.237Z,2.07
2019-06-10T02:04:57.451Z,0.97
2019-06-10T02:07:31.805Z,1.17
2019-06-10T02:10:03.597Z,1.47
2019-06-10T02:12:35.825Z,1.30
2019-06-10T02:15:08.095Z,1.60
2019-06-10T02:17:41.835Z,1.30
2019-06-10T02:20:16.528Z,1.03
2019-06-10T02:22:48.022Z,1.10
2019-06-10T02:25:21.695Z,1.80
2019-06-10T02:27:54.201Z,1.40
2019-06-10T02:30:40.398Z,1.23
2019-06-10T02:33:02.551Z,0.93
2019-06-10T02:35:43.981Z,1.60
2019-06-10T02:38:08.228Z,1.10
2019-06-10T02:40:43.206Z,1.30
2019-06-10T02:43:17.992Z,1.57
2019-06-10T02:45:48.263Z,0.93
2019-06-10T02:48:24.674Z,1.43
2019-06-10T02:50:54.546Z,1.40
2019-06-10T02:53:30.693Z,0.80
2019-06-10T02:56:03.989Z,1.40
2019-06-10T02:58:39.019Z,1.00
2019-06-10T03:01:08.610Z,1.17
2019-06-10T03:03:45.805Z,1.20
2019-06-10T03:06:19.864Z,1.20
2019-06-10T03:08:54.589Z,1.40
2019-06-10T03:11:29.725Z,0.97
2019-06-10T03:14:02.630Z,1.00
2019-06-10T03:16:34.973Z,0.87
2019-06-10T03:19:07.196Z,1.20
2019-06-10T03:21:39.401Z,1.33
2019-06-10T03:24:13.179Z,1.10
2019-06-10T03:26:45.660Z,1.17
2019-06-10T03:29:18.559Z,0.90
2019-06-10T03:31:54.773Z,0.80
2019-06-10T03:34:33.678Z,1.30
2019-06-10T03:36:58.766Z,1.13
2019-06-10T03:39:32.228Z,1.63
2019-06-10T03:42:04.531Z,1.33
2019-06-10T03:44:36.782Z,1.00
2019-06-10T03:47:09.007Z,1.00
2019-06-10T03:49:52.368Z,0.80
2019-06-10T03:52:15.153Z,1.30
2019-06-10T03:54:47.397Z,1.53
2019-06-10T03:57:19.619Z,1.23
2019-06-10T03:59:53.889Z,1.17
2019-06-10T04:02:28.504Z,1.50
2019-06-10T04:05:02.772Z,1.00
2019-06-10T04:07:34.801Z,1.13
2019-06-10T04:10:06.853Z,0.63
2019-06-10T04:12:39.072Z,1.30
2019-06-10T04:15:12.257Z,1.10
2019-06-10T04:17:44.808Z,1.10
2019-06-10T04:20:17.735Z,1.17
2019-06-10T04:22:52.193Z,0.70
2019-06-10T04:25:26.650Z,1.37
2019-06-10T04:27:57.935Z,0.70
2019-06-10T04:30:32.372Z,1.40
2019-06-10T04:33:05.177Z,1.43
2019-06-10T04:35:37.257Z,1.13
2019-06-10T04:38:13.082Z,1.30
2019-06-10T04:40:45.622Z,1.30
2019-06-10T04:43:18.854Z,1.30
2019-06-10T04:45:52.786Z,1.13
2019-06-10T04:48:26.549Z,1.07
2019-06-10T04:50:59.349Z,1.30
2019-06-10T04:53:33.058Z,1.00
2019-06-10T04:56:05.548Z,1.07
2019-06-10T04:58:37.781Z,1.03
2019-06-10T05:01:12.114Z,1.03
2019-06-10T05:03:44.190Z,1.67
2019-06-10T05:06:16.416Z,1.00
2019-06-10T05:08:48.785Z,1.00
2019-06-10T05:11:23.717Z,1.07
2019-06-10T05:13:54.934Z,0.80
2019-06-10T05:16:30.521Z,1.50
2019-06-10T05:19:03.618Z,1.27
2019-06-10T05:21:35.060Z,1.40
2019-06-10T05:24:07.306Z,1.10
2019-06-10T05:26:42.035Z,1.20
2019-06-10T05:29:13.469Z,0.70
2019-06-10T05:31:45.687Z,1.13
2019-06-10T05:34:17.903Z,1.20
2019-06-10T05:36:52.415Z,1.73
2019-06-10T05:39:27.058Z,0.87
2019-06-10T05:41:58.005Z,1.27
2019-06-10T05:44:30.236Z,1.27
2019-06-10T05:47:03.589Z,0.93
2019-06-10T05:49:36.371Z,1.07
2019-06-10T05:52:08.624Z,1.10
2019-06-10T05:54:42.988Z,1.00
2019-06-10T05:57:14.874Z,0.70
2019-06-10T05:59:47.100Z,0.90
2019-06-10T06:02:19.360Z,1.00
2019-06-10T06:04:53.047Z,1.00
2019-06-10T06:07:25.536Z,0.90
2019-06-10T06:09:57.745Z,0.93
2019-06-10T06:12:29.977Z,1.20
2019-06-10T06:15:02.510Z,1.30
2019-06-10T06:17:35.767Z,0.97
2019-06-10T06:20:08.005Z,0.90
2019-06-10T06:22:42.670Z,0.80
2019-06-10T06:25:15.474Z,0.80
2019-06-10T06:27:48.032Z,1.77
2019-06-10T06:30:22.589Z,0.90
2019-06-10T06:32:54.241Z,1.13
2019-06-10T06:35:26.482Z,0.90
2019-06-10T06:37:58.696Z,0.83
2019-06-10T06:40:34.274Z,0.57
2019-06-10T06:43:04.847Z,0.90
2019-06-10T06:45:37.767Z,0.93
2019-06-10T06:48:12.319Z,0.97
2019-06-10T06:51:00.096Z,1.07
2019-06-10T06:53:28.850Z,0.97
2019-06-10T06:55:55.869Z,0.90
2019-06-10T06:58:26.796Z,0.70
2019-06-10T07:01:07.411Z,1.03
2019-06-10T07:03:35.356Z,0.80
2019-06-10T07:06:07.194Z,0.60
2019-06-10T07:08:41.489Z,0.90
2019-06-10T07:11:13.878Z,1.30
2019-06-10T07:13:47.010Z,1.30
2019-06-10T07:16:19.281Z,1.07
2019-06-10T07:18:54.006Z,1.33
2019-06-10T07:21:25.461Z,1.37
2019-06-10T07:23:57.708Z,0.70
2019-06-10T07:26:34.118Z,1.10
2019-06-10T07:29:05.367Z,0.83
2019-06-10T07:31:38.454Z,1.00
2019-06-10T07:34:12.914Z,0.53
2019-06-10T07:36:46.481Z,1.03
2019-06-10T07:39:18.957Z,1.23
2019-06-10T07:41:52.840Z,0.80
2019-06-10T07:44:25.549Z,0.97
2019-06-10T07:46:57.787Z,0.93
2019-06-10T07:49:32.157Z,0.63
2019-06-10T07:52:15.855Z,0.80
2019-06-10T07:54:39.217Z,0.80
2019-06-10T07:57:12.963Z,1.17
2019-06-10T07:59:46.003Z,1.40
2019-06-10T08:02:18.501Z,0.80
2019-06-10T08:04:53.904Z,1.00
2019-06-10T08:07:24.920Z,0.90
2019-06-10T08:09:57.198Z,0.83
2019-06-10T08:12:29.418Z,0.93
2019-06-10T08:15:02.782Z,0.77
2019-06-10T08:17:36.110Z,0.97
2019-06-10T08:20:10.026Z,0.63
2019-06-10T08:22:50.876Z,1.00
2019-06-10T08:25:16.347Z,0.70
2019-06-10T08:27:49.368Z,0.60
2019-06-10T08:30:26.618Z,0.97
2019-06-10T08:32:56.581Z,1.00
2019-06-10T08:35:39.468Z,0.87
2019-06-10T08:38:02.865Z,0.80
2019-06-10T08:40:38.286Z,1.10
2019-06-10T08:43:13.159Z,1.00
2019-06-10T08:45:47.044Z,1.30
2019-06-10T08:48:18.645Z,0.97
2019-06-10T08:50:53.136Z,0.90
2019-06-10T08:53:24.862Z,0.90
2019-06-10T08:55:57.117Z,1.33
2019-06-10T08:58:29.317Z,1.03
2019-06-10T09:01:02.302Z,0.60
2019-06-10T09:03:36.298Z,0.77
2019-06-10T09:06:08.504Z,0.73
2019-06-10T09:08:41.914Z,0.63
2019-06-10T09:11:14.772Z,1.03
2019-06-10T09:13:48.321Z,0.70
2019-06-10T09:16:23.014Z,0.63
2019-06-10T09:18:55.631Z,0.63
2019-06-10T09:21:27.918Z,0.80
2019-06-10T09:24:03.566Z,1.07
2019-06-10T09:26:34.100Z,0.80
2019-06-10T09:29:06.528Z,0.73
2019-06-10T09:31:39.455Z,0.67
2019-06-10T09:34:12.957Z,0.53
2019-06-10T09:36:47.970Z,0.93
2019-06-10T09:39:19.272Z,0.60
2019-06-10T09:42:00.015Z,0.80
2019-06-10T09:44:25.705Z,0.87
2019-06-10T09:47:00.342Z,0.77
2019-06-10T09:49:33.489Z,0.80
2019-06-10T09:52:05.900Z,0.93
2019-06-10T09:54:38.155Z,0.80
2019-06-10T09:57:12.694Z,0.93
2019-06-10T09:59:47.772Z,0.90
2019-06-10T10:02:18.311Z,0.97
2019-06-10T10:04:54.819Z,0.87
2019-06-10T10:07:24.600Z,0.70
2019-06-10T10:09:57.409Z,1.07
2019-06-10T10:12:32.184Z,1.33
2019-06-10T10:15:22.521Z,0.90
2019-06-10T10:17:37.706Z,1.20
2019-06-10T10:20:12.222Z,0.93
2019-06-10T10:22:45.688Z,0.93
2019-06-10T10:25:18.073Z,0.87
2019-06-10T10:27:53.161Z,0.90
2019-06-10T10:30:24.595Z,1.17
2019-06-10T10:32:56.942Z,0.80
2019-06-10T10:35:29.178Z,0.63
2019-06-10T10:38:03.883Z,1.60
2019-06-10T10:40:35.537Z,0.70
2019-06-10T10:43:24.436Z,1.07
2019-06-10T10:45:47.364Z,0.90
2019-06-10T10:48:17.888Z,0.73
2019-06-10T10:50:55.848Z,0.97
2019-06-10T10:53:26.169Z,0.80
2019-06-10T10:55:58.411Z,1.13
2019-06-10T10:58:32.511Z,1.50
2019-06-10T11:01:05.000Z,0.80
2019-06-10T11:03:37.429Z,1.40
2019-06-10T11:06:12.626Z,1.10
2019-06-10T11:08:45.286Z,1.30
2019-06-10T11:11:18.194Z,1.00
2019-06-10T11:13:54.815Z,0.70
2019-06-10T11:16:26.017Z,1.53
2019-06-10T11:18:58.275Z,0.90
2019-06-10T11:21:32.892Z,1.30
2019-06-10T11:24:04.933Z,1.17
2019-06-10T11:26:37.299Z,0.90
2019-06-10T11:29:09.725Z,0.83
2019-06-10T11:31:44.316Z,0.93
2019-06-10T11:34:19.656Z,1.33
2019-06-10T11:36:53.550Z,1.97
2019-06-10T11:39:24.831Z,1.50
2019-06-10T11:41:59.361Z,1.20
2019-06-10T11:44:33.847Z,1.27
2019-06-10T11:47:05.540Z,1.10
2019-06-10T11:49:37.776Z,1.60
2019-06-10T11:52:12.594Z,1.57
2019-06-10T11:54:55.151Z,0.90
2019-06-10T11:57:18.547Z,1.37
2019-06-10T11:59:53.228Z,0.90
2019-06-10T12:02:27.197Z,0.82
2019-06-10T12:05:03.519Z,1.40
2019-06-10T12:07:35.063Z,1.27
2019-06-10T12:10:07.929Z,1.17
2019-06-10T12:12:43.199Z,1.20
2019-06-10T12:15:15.216Z,1.50
2019-06-10T12:17:55.530Z,1.10
2019-06-10T12:20:22.980Z,1.07
2019-06-10T12:22:58.230Z,1.62
2019-06-10T12:25:36.766Z,1.17
2019-06-10T12:28:07.168Z,1.00
2019-06-10T12:30:37.649Z,1.10
2019-06-10T12:33:09.856Z,1.23
2019-06-10T12:35:42.328Z,1.20
2019-06-10T12:38:14.789Z,1.53
2019-06-10T12:40:47.052Z,1.37
2019-06-10T12:43:19.252Z,0.80
2019-06-10T12:45:53.966Z,1.13
2019-06-10T12:48:25.834Z,1.00
2019-06-10T12:51:00.292Z,1.10
2019-06-10T12:53:32.674Z,1.00
2019-06-10T12:56:09.983Z,1.80
2019-06-10T12:58:39.219Z,1.10
2019-06-10T13:01:11.620Z,1.03
2019-06-10T13:03:43.981Z,1.23
2019-06-10T13:06:16.271Z,1.20
2019-06-10T13:08:48.490Z,1.20
2019-06-10T13:11:23.238Z,1.00
2019-06-10T13:13:56.137Z,1.13
2019-06-10T13:16:28.566Z,1.77
2019-06-10T13:19:03.281Z,1.73
2019-06-10T13:21:34.776Z,1.87
2019-06-10T13:24:07.912Z,0.93
2019-06-10T13:26:42.994Z,1.87
2019-06-10T13:29:17.571Z,1.80
2019-06-10T13:31:48.207Z,1.83
2019-06-10T13:34:22.143Z,1.60
2019-06-10T13:36:54.442Z,1.60
2019-06-10T13:39:27.735Z,1.00
2019-06-10T13:42:03.233Z,1.40
2019-06-10T13:44:34.104Z,1.30
2019-06-10T13:47:09.904Z,1.50
2019-06-10T13:49:42.690Z,1.43
2019-06-10T13:52:16.761Z,1.10
2019-06-10T13:54:48.122Z,1.00
2019-06-10T13:57:22.866Z,1.43
2019-06-10T13:59:54.264Z,1.13
2019-06-10T14:02:26.546Z,1.37
2019-06-10T14:05:00.082Z,1.00
2019-06-10T14:07:33.934Z,1.30
2019-06-10T14:10:09.623Z,1.37
2019-06-10T14:12:40.135Z,1.70
2019-06-10T14:15:17.016Z,1.20
2019-06-10T14:17:46.311Z,1.40
2019-06-10T14:20:22.987Z,1.23
2019-06-10T14:22:54.748Z,1.23
2019-06-10T14:25:27.016Z,1.50
2019-06-10T14:28:03.154Z,1.60
2019-06-10T14:30:33.982Z,1.70
2019-06-10T14:33:07.409Z,1.40
2019-06-10T14:35:39.733Z,1.97
2019-06-10T14:38:15.442Z,1.17
2019-06-10T14:40:46.562Z,1.70
2019-06-10T14:43:18.975Z,2.10
2019-06-10T14:45:53.420Z,1.60
2019-06-10T14:48:25.126Z,1.37
2019-06-10T14:50:57.339Z,1.90
2019-06-10T14:53:29.575Z,1.50
2019-06-10T14:56:03.578Z,1.53
2019-06-10T14:58:35.757Z,1.63
2019-06-10T15:01:11.416Z,1.23
2019-06-10T15:03:42.923Z,1.70
2019-06-10T15:06:15.675Z,1.87
2019-06-10T15:08:47.949Z,1.97
2019-06-10T15:11:23.200Z,1.73
2019-06-10T15:13:54.167Z,1.93
2019-06-10T15:16:26.421Z,2.20
2019-06-10T15:19:12.009Z,1.80
2019-06-10T15:21:32.708Z,1.60
2019-06-10T15:24:05.006Z,2.20
2019-06-10T15:26:37.224Z,2.20
2019-06-10T15:29:09.516Z,1.53
2019-06-10T15:31:42.883Z,2.20
2019-06-10T15:34:17.029Z,2.47
2019-06-10T15:36:49.174Z,1.80
2019-06-10T15:39:23.954Z,2.30
2019-06-10T15:41:55.562Z,2.30
2019-06-10T15:44:47.957Z,1.57
2019-06-10T15:47:03.106Z,2.00
2019-06-10T15:49:35.699Z,1.80
2019-06-10T15:52:07.969Z,2.10
2019-06-10T15:54:42.544Z,2.00
2019-06-10T15:57:31.453Z,2.00
2019-06-10T15:59:48.265Z,2.13
2019-06-10T16:02:21.896Z,1.83
2019-06-10T16:04:54.429Z,1.70
2019-06-10T16:07:26.810Z,2.27
2019-06-10T16:09:59.083Z,1.87
2019-06-10T16:12:33.020Z,2.10
2019-06-10T16:15:05.415Z,1.90
2019-06-10T16:17:37.658Z,1.73
2019-06-10T16:20:12.620Z,2.70
2019-06-10T16:22:43.879Z,1.93
2019-06-10T16:25:16.100Z,1.77
2019-06-10T16:27:51.115Z,2.10
2019-06-10T16:30:23.215Z,1.70
2019-06-10T16:32:56.376Z,1.57
2019-06-10T16:35:28.620Z,1.60
2019-06-10T16:38:00.846Z,1.80
2019-06-10T16:40:33.095Z,1.90
2019-06-10T16:43:05.360Z,1.80
2019-06-10T16:45:37.551Z,2.37
2019-06-10T16:48:09.804Z,1.77
2019-06-10T16:50:42.616Z,1.97
2019-06-10T16:53:15.061Z,2.23
2019-06-10T16:55:47.302Z,2.87
2019-06-10T16:58:21.168Z,2.30
2019-06-10T17:00:53.503Z,2.50
2019-06-10T17:03:27.286Z,2.60
2019-06-10T17:05:59.709Z,2.70
2019-06-10T17:08:33.396Z,2.40
2019-06-10T17:11:06.014Z,2.47
2019-06-10T17:13:38.236Z,2.70
2019-06-10T17:16:12.544Z,3.00
2019-06-10T17:18:45.523Z,2.03
2019-06-10T17:21:19.394Z,2.50
2019-06-10T17:23:52.579Z,2.60
2019-06-10T17:26:30.649Z,2.67
2019-06-10T17:28:59.341Z,2.13
2019-06-10T17:31:35.034Z,2.97
2019-06-10T17:34:06.034Z,2.30
2019-06-10T17:36:38.326Z,2.33
2019-06-10T17:39:12.523Z,2.33
2019-06-10T17:41:44.646Z,2.00
2019-06-10T17:44:16.948Z,2.40
2019-06-10T17:46:49.270Z,2.00
2019-06-10T17:49:23.781Z,2.00
2019-06-10T17:51:55.813Z,1.63
2019-06-10T17:54:28.276Z,1.80
2019-06-10T17:57:02.515Z,1.90
2019-06-10T17:59:35.515Z,2.60
2019-06-10T18:02:08.066Z,2.33
2019-06-10T18:04:42.053Z,3.10
2019-06-10T18:07:14.483Z,3.10
2019-06-10T18:09:46.759Z,2.33
2019-06-10T18:12:19.003Z,2.67
2019-06-10T18:14:52.479Z,2.20
2019-06-10T18:17:25.992Z,2.27
2019-06-10T18:19:58.891Z,1.70
2019-06-10T18:22:33.456Z,1.63
2019-06-10T18:25:05.094Z,1.90
2019-06-10T18:27:37.352Z,1.60
2019-06-10T18:30:11.487Z,1.97
2019-06-10T18:32:44.692Z,2.47
2019-06-10T18:35:16.893Z,2.20
2019-06-10T18:37:49.157Z,2.07
2019-06-10T18:40:21.425Z,1.87
2019-06-10T18:42:53.836Z,1.93
2019-06-10T18:45:26.147Z,2.23
2019-06-10T18:47:59.420Z,2.30
2019-06-10T18:50:33.391Z,2.10
2019-06-10T18:53:06.511Z,2.37
2019-06-10T18:55:40.570Z,2.00
2019-06-10T18:58:12.857Z,1.93
2019-06-10T19:00:59.097Z,2.00
2019-06-10T19:03:19.088Z,2.07
2019-06-10T19:05:52.932Z,2.50
2019-06-10T19:08:25.758Z,2.20
2019-06-10T19:10:58.011Z,2.10
2019-06-10T19:13:33.928Z,1.83
2019-06-10T19:16:04.572Z,1.67
2019-06-10T19:18:37.859Z,1.90
2019-06-10T19:21:12.915Z,2.23
2019-06-10T19:23:44.349Z,1.73
2019-06-10T19:26:18.608Z,2.57
2019-06-10T19:28:53.352Z,2.90
2019-06-10T19:31:25.303Z,2.87
2019-06-10T19:33:57.598Z,2.77
2019-06-10T19:36:29.835Z,2.33
2019-06-10T19:39:02.400Z,2.67
2019-06-10T19:41:38.302Z,2.40
2019-06-10T19:44:13.005Z,2.47
2019-06-10T19:46:45.075Z,2.00
2019-06-10T19:49:17.599Z,2.13
2019-06-10T19:51:52.453Z,1.67
2019-06-10T19:54:24.001Z,2.13
2019-06-10T19:56:56.362Z,2.03
2019-06-10T19:59:28.640Z,2.90
2019-06-10T20:02:03.242Z,2.90
2019-06-10T20:04:36.145Z,3.50
2019-06-10T20:07:08.660Z,3.77
2019-06-10T20:09:43.298Z,3.93
2019-06-10T20:12:14.856Z,3.40
2019-06-10T20:14:47.887Z,4.17
2019-06-10T20:17:22.618Z,3.60
2019-06-10T20:19:54.491Z,3.37
2019-06-10T20:22:26.699Z,2.80
2019-06-10T20:24:59.011Z,2.60
2019-06-10T20:27:33.041Z,2.80
2019-06-10T20:30:20.551Z,1.40
2019-06-10T20:32:41.508Z,1.47
2019-06-10T20:35:13.089Z,1.70
2019-06-10T20:37:47.242Z,1.20
2019-06-10T20:40:19.280Z,1.57
2019-06-10T20:42:51.685Z,0.93
2019-06-10T20:45:23.928Z,0.80
2019-06-10T20:47:56.189Z,0.80
2019-06-10T20:50:28.398Z,1.30
2019-06-10T20:53:13.832Z,1.40
2019-06-10T20:55:42.460Z,1.27
2019-06-10T20:58:08.533Z,1.40
2019-06-10T21:00:46.505Z,1.53
2019-06-10T21:03:14.689Z,1.63
2019-06-10T21:05:47.719Z,2.17
2019-06-10T21:08:22.524Z,1.90
2019-06-10T21:10:54.950Z,1.93
2019-06-10T21:13:27.429Z,2.20
2019-06-10T21:15:59.644Z,1.80
2019-06-10T21:18:32.997Z,2.30
2019-06-10T21:21:05.503Z,2.33
2019-06-10T21:23:37.734Z,2.43
2019-06-10T21:26:12.431Z,2.10
2019-06-10T21:28:47.358Z,2.30
2019-06-10T21:31:17.870Z,3.10
2019-06-10T21:33:51.810Z,3.13
2019-06-10T21:36:24.081Z,3.20
2019-06-10T21:38:56.319Z,2.57
2019-06-10T21:41:28.998Z,2.77
2019-06-10T21:44:03.096Z,3.00
2019-06-10T21:46:35.202Z,2.77
2019-06-10T21:49:07.588Z,2.93
2019-06-10T21:51:39.825Z,2.63
2019-06-10T21:54:12.105Z,2.90
2019-06-10T21:56:45.646Z,2.80
2019-06-10T21:59:19.387Z,2.40
2019-06-10T22:01:51.643Z,3.07
2019-06-10T22:04:23.854Z,2.43
2019-06-10T22:06:56.440Z,2.27
2019-06-10T22:09:28.811Z,2.73
2019-06-10T22:12:02.944Z,2.67
2019-06-10T22:14:34.962Z,2.50
2019-06-10T22:17:07.205Z,2.73
2019-06-10T22:19:39.429Z,2.47
2019-06-10T22:22:12.981Z,2.70
2019-06-10T22:24:45.244Z,2.67
2019-06-10T22:27:17.491Z,2.77
2019-06-10T22:29:49.708Z,2.47
2019-06-10T22:32:22.002Z,2.37
2019-06-10T22:34:55.821Z,2.63
2019-06-10T22:37:28.178Z,2.83
2019-06-10T22:40:03.075Z,3.43
2019-06-10T22:42:35.401Z,3.93
2019-06-10T22:45:07.784Z,3.37
2019-06-10T22:47:40.026Z,4.03
2019-06-10T22:50:12.668Z,3.80
2019-06-10T22:52:44.965Z,3.83
2019-06-10T22:55:17.806Z,3.87
2019-06-10T22:57:51.755Z,4.23
2019-06-10T23:00:24.119Z,4.80
2019-06-10T23:02:57.683Z,5.20
2019-06-10T23:05:30.420Z,4.03
2019-06-10T23:08:02.630Z,5.17
2019-06-10T23:10:34.856Z,5.33
2019-06-10T23:13:08.193Z,5.60
2019-06-10T23:15:42.654Z,5.07
2019-06-10T23:18:14.436Z,4.00
2019-06-10T23:20:46.644Z,4.30
2019-06-10T23:23:18.873Z,4.73
2019-06-10T23:25:51.707Z,4.10
2019-06-10T23:28:24.272Z,4.83
2019-06-10T23:30:58.883Z,5.00
2019-06-10T23:33:32.378Z,4.87
2019-06-10T23:36:04.398Z,4.93
2019-06-10T23:38:36.623Z,4.47
2019-06-10T23:41:08.832Z,5.03
2019-06-10T23:43:42.319Z,5.03
2019-06-10T23:46:14.698Z,4.80
2019-06-10T23:48:46.931Z,4.70
2019-06-10T23:51:19.185Z,4.50
2019-06-10T23:53:56.303Z,5.07
2019-06-10T23:56:25.384Z,4.53
2019-06-10T23:59:00.395Z,4.07
